Time;durP1;ratioP1;P1;durP2;ratioP2;P2;SDS_P1;SDS_P2;PMS_P1;PMS_P2;Temp;Humidity;BMP_temperature;BMP_pressure;BME280_temperature;BME280_humidity;BME280_pressure;Samples;Min_cycle;Max_cycle;Signal;HPM_P1;HPM_P2
2021/04/10 00:01:08;;;;;;;14.77;4.70;;;;;;;;;;5113618;27;20096;-77
2021/04/10 00:03:35;;;;;;;18.20;4.60;;;;;;;;;;5128182;27;20067;-76
2021/04/10 00:06:01;;;;;;;19.52;5.00;;;;;;;;;;5146626;27;20047;-76
2021/04/10 00:08:27;;;;;;;19.75;4.35;;;;;;;;;;5132265;27;20035;-76
2021/04/10 00:10:54;;;;;;;18.00;4.35;;;;;;;;;;5132505;27;20477;-76
2021/04/10 00:13:20;;;;;;;20.33;4.53;;;;;;;;;;5131221;27;20100;-76
2021/04/10 00:15:46;;;;;;;13.57;4.00;;;;;;;;;;5133230;27;20122;-76
2021/04/10 00:18:12;;;;;;;16.70;3.85;;;;;;;;;;5132019;27;20043;-76
2021/04/10 00:20:38;;;;;;;15.00;3.95;;;;;;;;;;5131736;27;20031;-76
2021/04/10 00:23:05;;;;;;;15.88;4.20;;;;;;;;;;5132617;27;20073;-77
2021/04/10 00:25:31;;;;;;;12.98;3.80;;;;;;;;;;5123502;27;20054;-76
2021/04/10 00:27:57;;;;;;;14.93;4.32;;;;;;;;;;5131258;27;20036;-76
2021/04/10 00:30:29;;;;;;;18.40;3.92;;;;;;;;;;5132304;27;20057;-76
2021/04/10 00:32:55;;;;;;;20.38;4.53;;;;;;;;;;5114188;27;20046;-77
2021/04/10 00:35:21;;;;;;;16.30;4.40;;;;;;;;;;5124011;27;20067;-76
2021/04/10 00:37:47;;;;;;;12.90;3.70;;;;;;;;;;5122536;27;20047;-76
2021/04/10 00:40:15;;;;;;;19.52;4.07;;;;;;;;;;5132438;27;20091;-76
2021/04/10 00:42:41;;;;;;;16.20;4.55;;;;;;;;;;5131922;27;20083;-76
2021/04/10 00:45:09;;;;;;;16.65;3.78;;;;;;;;;;5129538;27;20473;-76
2021/04/10 00:47:35;;;;;;;19.20;4.35;;;;;;;;;;5131883;27;20035;-75
2021/04/10 00:50:01;;;;;;;17.70;4.95;;;;;;;;;;5131221;27;20054;-76
2021/04/10 00:52:29;;;;;;;27.10;5.50;;;;;;;;;;5130566;27;20138;-75
2021/04/10 00:54:55;;;;;;;13.57;4.20;;;;;;;;;;5131594;27;20047;-76
2021/04/10 00:57:23;;;;;;;14.30;4.60;;;;;;;;;;5095948;28;20067;-76
2021/04/10 00:59:50;;;;;;;20.85;5.32;;;;;;;;;;5114747;28;20389;-76
2021/04/10 01:02:16;;;;;;;16.42;4.88;;;;;;;;;;5130276;28;20523;-76
2021/04/10 01:04:42;;;;;;;18.48;4.78;;;;;;;;;;5107418;28;20127;-76
2021/04/10 01:07:09;;;;;;;24.10;5.28;;;;;;;;;;5127033;28;20401;-76
2021/04/10 01:09:36;;;;;;;16.02;4.90;;;;;;;;;;5131417;28;20458;-76
2021/04/10 01:12:14;;;;;;;22.33;4.95;;;;;;;;;;5097434;28;20046;-76
2021/04/10 01:14:47;;;;;;;14.35;4.80;;;;;;;;;;5124013;28;20039;-76
2021/04/10 01:17:15;;;;;;;18.88;5.15;;;;;;;;;;5130647;28;20055;-76
2021/04/10 01:19:48;;;;;;;26.23;6.38;;;;;;;;;;5131247;28;20535;-75
2021/04/10 01:22:25;;;;;;;21.20;5.28;;;;;;;;;;5130310;28;20039;-76
2021/04/10 01:25:14;;;;;;;14.40;5.38;;;;;;;;;;5113918;28;20050;-76
2021/04/10 01:27:41;;;;;;;24.67;7.05;;;;;;;;;;5131047;28;20043;-76
2021/04/10 01:30:13;;;;;;;16.08;5.20;;;;;;;;;;5130841;28;20045;-76
2021/04/10 01:32:59;;;;;;;17.92;5.18;;;;;;;;;;5132035;28;20031;-76
2021/04/10 01:35:28;;;;;;;17.08;5.25;;;;;;;;;;5131677;28;20039;-75
2021/04/10 01:37:59;;;;;;;20.83;5.35;;;;;;;;;;5129322;28;20063;-76
2021/04/10 01:40:27;;;;;;;18.42;4.55;;;;;;;;;;5132753;28;20062;-75
2021/04/10 01:42:54;;;;;;;20.73;5.18;;;;;;;;;;5131970;28;20486;-76
2021/04/10 01:45:21;;;;;;;14.82;4.65;;;;;;;;;;5130511;28;20317;-76
2021/04/10 01:47:48;;;;;;;15.18;4.95;;;;;;;;;;5131320;28;20035;-75
2021/04/10 01:50:15;;;;;;;16.77;4.95;;;;;;;;;;5129621;28;20070;-76
2021/04/10 01:52:43;;;;;;;23.33;5.78;;;;;;;;;;5130764;28;20499;-76
2021/04/10 01:55:10;;;;;;;20.55;5.40;;;;;;;;;;5129497;28;20053;-76
2021/04/10 01:57:37;;;;;;;20.58;5.57;;;;;;;;;;5132360;28;20403;-76
2021/04/10 02:00:05;;;;;;;22.40;5.55;;;;;;;;;;5121318;28;20043;-76
2021/04/10 02:02:31;;;;;;;22.60;5.25;;;;;;;;;;5131210;27;20088;-76
2021/04/10 02:04:58;;;;;;;18.83;5.22;;;;;;;;;;5134455;27;20042;-76
2021/04/10 02:07:25;;;;;;;22.75;5.97;;;;;;;;;;5132929;27;20087;-76
2021/04/10 02:09:52;;;;;;;13.25;4.70;;;;;;;;;;5134701;27;20043;-76
2021/04/10 02:12:20;;;;;;;24.83;5.97;;;;;;;;;;5133807;27;20039;-76
2021/04/10 02:14:46;;;;;;;21.50;6.72;;;;;;;;;;5134708;27;20111;-76
2021/04/10 02:17:15;;;;;;;20.80;6.47;;;;;;;;;;5133801;27;20043;-76
2021/04/10 02:19:41;;;;;;;14.52;5.05;;;;;;;;;;5134205;27;20040;-75
2021/04/10 02:22:07;;;;;;;23.00;5.78;;;;;;;;;;5150197;27;20084;-76
2021/04/10 02:24:34;;;;;;;17.08;5.40;;;;;;;;;;5134487;27;20043;-76
2021/04/10 02:27:00;;;;;;;11.60;4.97;;;;;;;;;;5134994;27;20043;-76
2021/04/10 02:29:26;;;;;;;13.25;5.00;;;;;;;;;;5133560;27;20050;-76
2021/04/10 02:31:56;;;;;;;16.30;6.15;;;;;;;;;;5132634;27;20035;-75
2021/04/10 02:34:24;;;;;;;21.60;7.93;;;;;;;;;;5134760;27;20039;-76
2021/04/10 02:36:53;;;;;;;20.73;6.22;;;;;;;;;;5116559;27;20199;-76
2021/04/10 02:39:19;;;;;;;16.23;6.00;;;;;;;;;;5134644;27;20156;-76
2021/04/10 02:41:49;;;;;;;18.45;6.07;;;;;;;;;;5117474;27;20042;-76
2021/04/10 02:44:17;;;;;;;18.80;5.28;;;;;;;;;;5126704;27;20039;-76
2021/04/10 02:46:45;;;;;;;20.98;6.15;;;;;;;;;;5125846;27;20080;-76
2021/04/10 02:49:15;;;;;;;17.83;5.05;;;;;;;;;;5133994;27;20124;-76
2021/04/10 02:51:45;;;;;;;14.32;4.38;;;;;;;;;;5134828;27;20050;-76
2021/04/10 02:54:17;;;;;;;24.50;4.57;;;;;;;;;;5132641;27;20039;-76
2021/04/10 02:56:46;;;;;;;12.85;4.88;;;;;;;;;;5134765;27;20059;-76
2021/04/10 02:59:13;;;;;;;19.65;4.85;;;;;;;;;;5133214;27;20439;-76
2021/04/10 03:01:41;;;;;;;22.73;4.90;;;;;;;;;;5132680;27;20039;-75
2021/04/10 03:04:10;;;;;;;19.58;4.47;;;;;;;;;;5132803;27;20513;-76
2021/04/10 03:06:36;;;;;;;15.93;3.70;;;;;;;;;;5133508;27;20046;-76
2021/04/10 03:09:02;;;;;;;17.77;3.92;;;;;;;;;;5132780;27;20047;-76
2021/04/10 03:11:29;;;;;;;12.20;4.00;;;;;;;;;;5098967;27;20383;-76
2021/04/10 03:13:55;;;;;;;17.98;4.15;;;;;;;;;;5132540;27;20095;-75
2021/04/10 03:16:22;;;;;;;19.48;4.63;;;;;;;;;;5131982;27;20432;-76
2021/04/10 03:18:50;;;;;;;20.23;4.50;;;;;;;;;;5133711;27;20046;-75
2021/04/10 03:21:17;;;;;;;21.25;4.63;;;;;;;;;;5132647;27;20475;-76
2021/04/10 03:23:43;;;;;;;17.52;4.57;;;;;;;;;;5132897;27;20046;-76
2021/04/10 03:26:09;;;;;;;14.93;3.92;;;;;;;;;;5133582;27;20036;-75
2021/04/10 03:28:36;;;;;;;16.75;4.40;;;;;;;;;;5130890;27;20047;-76
2021/04/10 03:31:02;;;;;;;23.73;4.75;;;;;;;;;;5133171;27;20066;-75
2021/04/10 03:33:33;;;;;;;15.00;4.05;;;;;;;;;;5112934;27;20035;-76
2021/04/10 03:36:00;;;;;;;18.73;4.68;;;;;;;;;;5133842;27;20057;-76
2021/04/10 03:38:27;;;;;;;13.52;3.17;;;;;;;;;;5131591;27;20050;-76
2021/04/10 03:40:53;;;;;;;16.55;4.93;;;;;;;;;;5130363;27;20043;-75
2021/04/10 03:43:19;;;;;;;12.82;3.67;;;;;;;;;;5132097;27;20047;-76
2021/04/10 03:45:45;;;;;;;15.82;4.68;;;;;;;;;;5133207;27;20114;-75
2021/04/10 03:48:12;;;;;;;9.50;3.38;;;;;;;;;;5094995;28;20054;-75
2021/04/10 03:50:39;;;;;;;15.93;4.18;;;;;;;;;;5130304;27;20533;-75
2021/04/10 03:53:05;;;;;;;13.52;3.55;;;;;;;;;;5125028;27;20043;-75
2021/04/10 03:55:32;;;;;;;18.15;3.95;;;;;;;;;;5124979;27;20436;-76
2021/04/10 03:58:01;;;;;;;18.27;3.55;;;;;;;;;;5148725;27;20131;-76
2021/04/10 04:00:28;;;;;;;14.07;3.53;;;;;;;;;;5130490;27;20389;-76
2021/04/10 04:02:55;;;;;;;12.40;2.97;;;;;;;;;;5132761;27;20489;-76
2021/04/10 04:05:22;;;;;;;13.40;2.88;;;;;;;;;;5133165;27;20485;-76
2021/04/10 04:07:48;;;;;;;17.40;2.75;;;;;;;;;;5132779;27;20043;-76
2021/04/10 04:10:14;;;;;;;11.55;3.25;;;;;;;;;;5131485;27;20537;-75
2021/04/10 04:12:41;;;;;;;13.57;2.63;;;;;;;;;;5132079;27;20039;-75
2021/04/10 04:15:07;;;;;;;22.23;3.30;;;;;;;;;;5132845;27;20043;-75
2021/04/10 04:17:33;;;;;;;16.83;3.55;;;;;;;;;;5131232;27;20035;-76
2021/04/10 04:19:59;;;;;;;14.52;3.47;;;;;;;;;;5132357;27;20067;-75
2021/04/10 04:22:25;;;;;;;18.98;3.75;;;;;;;;;;5130508;27;20031;-76
2021/04/10 04:24:52;;;;;;;14.35;3.05;;;;;;;;;;5133954;27;20042;-76
2021/04/10 04:27:18;;;;;;;19.58;3.47;;;;;;;;;;5131732;27;20062;-76
2021/04/10 04:29:44;;;;;;;12.75;3.05;;;;;;;;;;5114328;27;20109;-76
2021/04/10 04:32:10;;;;;;;15.25;3.28;;;;;;;;;;5119047;27;20474;-76
2021/04/10 04:34:36;;;;;;;12.70;3.20;;;;;;;;;;5131132;27;20517;-76
2021/04/10 04:37:03;;;;;;;18.20;3.33;;;;;;;;;;5133286;27;20054;-76
2021/04/10 04:39:30;;;;;;;22.88;3.83;;;;;;;;;;5130694;27;20035;-76
2021/04/10 04:41:56;;;;;;;18.05;4.28;;;;;;;;;;5130885;27;20393;-75
2021/04/10 04:44:22;;;;;;;17.98;3.05;;;;;;;;;;5131284;27;20405;-76
2021/04/10 04:46:48;;;;;;;10.15;2.95;;;;;;;;;;5131616;27;20055;-76
2021/04/10 04:49:14;;;;;;;17.48;3.08;;;;;;;;;;5131273;27;20041;-76
2021/04/10 04:51:40;;;;;;;18.05;2.67;;;;;;;;;;5131475;27;20065;-76
2021/04/10 04:54:06;;;;;;;19.13;2.83;;;;;;;;;;5130914;27;20461;-76
2021/04/10 04:56:32;;;;;;;12.25;2.78;;;;;;;;;;5131015;27;20090;-76
2021/04/10 04:58:58;;;;;;;9.65;2.55;;;;;;;;;;5130920;27;20039;-76
2021/04/10 05:01:25;;;;;;;7.05;2.17;;;;;;;;;;5120723;28;20048;-76
2021/04/10 05:03:51;;;;;;;16.05;3.10;;;;;;;;;;5128641;28;20404;-76
2021/04/10 05:06:17;;;;;;;16.15;3.20;;;;;;;;;;5132786;28;20045;-76
2021/04/10 05:08:44;;;;;;;15.07;2.83;;;;;;;;;;5131033;28;20042;-76
2021/04/10 05:11:10;;;;;;;15.18;2.08;;;;;;;;;;5130889;28;20055;-76
2021/04/10 05:13:36;;;;;;;13.15;1.90;;;;;;;;;;5113199;28;20046;-76
2021/04/10 05:16:02;;;;;;;11.20;2.10;;;;;;;;;;5132439;28;20047;-76
2021/04/10 05:18:28;;;;;;;15.50;2.47;;;;;;;;;;5113386;28;20035;-76
2021/04/10 05:20:54;;;;;;;15.35;2.67;;;;;;;;;;5133079;28;20042;-76
2021/04/10 05:23:24;;;;;;;16.92;1.90;;;;;;;;;;5130673;28;20075;-76
2021/04/10 05:25:51;;;;;;;15.13;1.70;;;;;;;;;;5131545;28;20046;-76
2021/04/10 05:28:17;;;;;;;12.07;2.22;;;;;;;;;;5130117;28;20035;-76
2021/04/10 05:30:44;;;;;;;13.68;2.15;;;;;;;;;;5132071;28;20257;-76
2021/04/10 05:33:10;;;;;;;13.27;2.40;;;;;;;;;;5132371;28;20039;-76
2021/04/10 05:35:36;;;;;;;13.25;2.00;;;;;;;;;;5110641;28;20046;-76
2021/04/10 05:38:03;;;;;;;12.45;2.22;;;;;;;;;;5114782;27;20050;-75
2021/04/10 05:40:29;;;;;;;11.05;2.33;;;;;;;;;;5133953;27;20050;-75
2021/04/10 05:42:55;;;;;;;12.80;2.00;;;;;;;;;;5135486;27;20039;-76
2021/04/10 05:45:22;;;;;;;17.92;2.50;;;;;;;;;;5134004;27;20047;-77
2021/04/10 05:47:48;;;;;;;13.70;2.25;;;;;;;;;;5110219;28;20048;-77
2021/04/10 05:50:14;;;;;;;10.40;1.98;;;;;;;;;;5131636;27;20100;-78
2021/04/10 05:52:41;;;;;;;11.02;2.00;;;;;;;;;;5132480;27;20517;-76
2021/04/10 05:55:08;;;;;;;12.18;1.88;;;;;;;;;;5130549;27;20163;-76
2021/04/10 05:57:35;;;;;;;7.95;1.50;;;;;;;;;;5134594;27;20371;-76
2021/04/10 06:00:03;;;;;;;10.18;2.33;;;;;;;;;;5132341;27;20070;-76
2021/04/10 06:02:29;;;;;;;8.65;1.63;;;;;;;;;;5133363;27;20035;-76
2021/04/10 06:04:56;;;;;;;14.63;2.53;;;;;;;;;;5114533;27;20044;-75
2021/04/10 06:07:22;;;;;;;8.38;1.60;;;;;;;;;;5133851;27;20036;-76
2021/04/10 06:09:49;;;;;;;14.07;1.88;;;;;;;;;;5114009;27;20047;-76
2021/04/10 06:12:15;;;;;;;15.40;3.05;;;;;;;;;;5131231;27;20070;-76
2021/04/10 06:14:41;;;;;;;13.98;2.35;;;;;;;;;;5130786;27;20043;-76
2021/04/10 06:17:07;;;;;;;7.95;1.88;;;;;;;;;;5133258;27;20042;-77
2021/04/10 06:19:33;;;;;;;8.00;1.73;;;;;;;;;;5131962;27;20088;-77
2021/04/10 06:21:59;;;;;;;14.13;1.70;;;;;;;;;;5133130;27;20039;-76
2021/04/10 06:24:26;;;;;;;9.82;2.00;;;;;;;;;;5133404;27;20118;-77
2021/04/10 06:26:54;;;;;;;13.95;1.73;;;;;;;;;;5138701;27;20035;-77
2021/04/10 06:29:20;;;;;;;10.55;2.08;;;;;;;;;;5131309;27;20051;-75
2021/04/10 06:31:47;;;;;;;16.83;1.67;;;;;;;;;;5115790;27;20054;-73
2021/04/10 06:34:13;;;;;;;9.25;2.03;;;;;;;;;;5134257;27;20050;-76
2021/04/10 06:36:39;;;;;;;13.63;1.90;;;;;;;;;;5115781;27;20091;-76
2021/04/10 06:39:06;;;;;;;7.88;1.55;;;;;;;;;;5113964;28;20494;-76
2021/04/10 06:41:34;;;;;;;15.45;1.75;;;;;;;;;;5131630;27;20050;-76
2021/04/10 06:44:00;;;;;;;9.80;1.90;;;;;;;;;;5149422;27;20045;-75
2021/04/10 06:46:28;;;;;;;10.52;1.50;;;;;;;;;;5138265;27;20470;-76
2021/04/10 06:48:56;;;;;;;12.38;2.00;;;;;;;;;;5136073;27;20066;-76
2021/04/10 06:51:23;;;;;;;10.88;1.88;;;;;;;;;;5164813;27;20385;-76
2021/04/10 06:53:50;;;;;;;17.13;2.10;;;;;;;;;;5135717;27;20487;-76
2021/04/10 06:56:31;;;;;;;12.15;2.20;;;;;;;;;;5129792;27;20042;-76
2021/04/10 06:59:21;;;;;;;9.25;3.25;;;;;;;;;;5151856;27;20043;-77
2021/04/10 07:01:47;;;;;;;9.90;1.98;;;;;;;;;;5134278;27;20047;-76
2021/04/10 07:04:13;;;;;;;4.82;1.70;;;;;;;;;;5136711;27;20058;-77
2021/04/10 07:06:40;;;;;;;12.80;1.77;;;;;;;;;;5136516;27;20042;-78
2021/04/10 07:09:06;;;;;;;7.55;1.85;;;;;;;;;;5150035;27;20049;-77
2021/04/10 07:11:33;;;;;;;10.38;2.65;;;;;;;;;;5141636;27;20038;-76
2021/04/10 07:14:01;;;;;;;17.25;2.35;;;;;;;;;;5131501;27;20066;-76
2021/04/10 07:16:28;;;;;;;12.00;2.10;;;;;;;;;;5145005;27;20035;-76
2021/04/10 07:18:55;;;;;;;10.60;1.98;;;;;;;;;;5139578;27;20326;-77
2021/04/10 07:21:21;;;;;;;5.43;1.80;;;;;;;;;;5148271;27;20126;-77
2021/04/10 07:23:49;;;;;;;6.10;1.58;;;;;;;;;;5143255;27;20037;-76
2021/04/10 07:26:15;;;;;;;14.45;1.92;;;;;;;;;;5132861;27;20486;-76
2021/04/10 07:28:42;;;;;;;6.00;1.27;;;;;;;;;;5132832;27;20047;-77
2021/04/10 07:31:09;;;;;;;10.55;2.10;;;;;;;;;;5140860;27;20039;-76
2021/04/10 07:33:37;;;;;;;9.25;1.70;;;;;;;;;;5141666;27;20039;-76
2021/04/10 07:36:05;;;;;;;11.52;2.03;;;;;;;;;;5143615;27;20114;-76
2021/04/10 07:38:32;;;;;;;10.70;1.70;;;;;;;;;;5124844;27;20088;-76
2021/04/10 07:40:59;;;;;;;14.75;1.92;;;;;;;;;;5132188;27;20039;-77
2021/04/10 07:43:30;;;;;;;9.73;1.60;;;;;;;;;;5151246;27;20179;-76
2021/04/10 07:46:14;;;;;;;9.15;1.33;;;;;;;;;;5140198;27;20058;-78
2021/04/10 07:48:58;;;;;;;9.77;1.77;;;;;;;;;;5138248;27;20130;-77
2021/04/10 07:51:24;;;;;;;7.15;1.45;;;;;;;;;;5157108;27;20031;-78
2021/04/10 07:53:50;;;;;;;6.53;1.50;;;;;;;;;;5135304;27;20499;-76
2021/04/10 07:56:16;;;;;;;7.25;1.33;;;;;;;;;;5135691;27;20145;-77
2021/04/10 07:58:42;;;;;;;9.60;1.20;;;;;;;;;;5130861;27;20047;-76
2021/04/10 08:01:09;;;;;;;9.65;2.00;;;;;;;;;;5132402;27;20046;-77
2021/04/10 08:03:37;;;;;;;6.20;1.20;;;;;;;;;;5115639;27;20067;-76
2021/04/10 08:06:06;;;;;;;8.70;2.08;;;;;;;;;;5131206;27;20074;-76
2021/04/10 08:08:33;;;;;;;9.43;1.27;;;;;;;;;;5150996;27;20030;-77
2021/04/10 08:11:01;;;;;;;8.60;1.15;;;;;;;;;;5116449;27;20255;-73
2021/04/10 08:13:27;;;;;;;10.80;1.40;;;;;;;;;;5130072;27;20038;-74
2021/04/10 08:16:12;;;;;;;6.63;1.33;;;;;;;;;;5108430;27;20053;-77
2021/04/10 08:18:49;;;;;;;9.85;1.52;;;;;;;;;;5083286;27;20147;-77
2021/04/10 08:21:16;;;;;;;9.48;0.93;;;;;;;;;;5144028;27;20121;-77
2021/04/10 08:23:42;;;;;;;10.45;1.95;;;;;;;;;;5132085;27;20448;-76
2021/04/10 08:26:08;;;;;;;8.63;1.50;;;;;;;;;;5115500;27;20039;-76
2021/04/10 08:28:38;;;;;;;9.15;1.55;;;;;;;;;;5132427;27;20043;-76
2021/04/10 08:31:04;;;;;;;8.60;1.23;;;;;;;;;;5130039;27;20039;-76
2021/04/10 08:33:31;;;;;;;6.75;1.20;;;;;;;;;;5146965;27;20549;-76
2021/04/10 08:35:58;;;;;;;9.48;1.50;;;;;;;;;;5149212;27;20099;-76
2021/04/10 08:38:30;;;;;;;11.52;1.40;;;;;;;;;;5131178;27;20059;-76
2021/04/10 08:40:58;;;;;;;5.47;1.40;;;;;;;;;;5131773;27;20438;-77
2021/04/10 08:43:25;;;;;;;10.48;1.63;;;;;;;;;;5133507;27;20031;-77
2021/04/10 08:45:53;;;;;;;11.02;1.67;;;;;;;;;;5145102;27;20043;-77
2021/04/10 08:48:22;;;;;;;8.85;1.30;;;;;;;;;;5146586;27;20066;-76
2021/04/10 08:50:51;;;;;;;10.48;1.52;;;;;;;;;;5136766;27;20046;-77
2021/04/10 08:53:37;;;;;;;7.07;1.17;;;;;;;;;;5133379;27;20038;-77
2021/04/10 08:56:07;;;;;;;4.35;0.90;;;;;;;;;;5135493;27;20039;-84
2021/04/10 08:58:36;;;;;;;5.78;1.20;;;;;;;;;;5132181;27;20057;-82
2021/04/10 09:01:02;;;;;;;8.20;1.25;;;;;;;;;;5115088;27;20066;-77
2021/04/10 09:03:50;;;;;;;8.38;1.40;;;;;;;;;;5128941;27;20045;-81
2021/04/10 09:06:36;;;;;;;9.70;1.73;;;;;;;;;;5116668;27;20042;-80
2021/04/10 09:09:12;;;;;;;5.43;1.02;;;;;;;;;;5133062;27;20049;-78
2021/04/10 09:11:39;;;;;;;7.88;1.60;;;;;;;;;;5139100;27;20035;-78
2021/04/10 09:14:05;;;;;;;7.97;1.58;;;;;;;;;;5139281;27;20629;-80
2021/04/10 09:16:40;;;;;;;6.43;1.10;;;;;;;;;;5123925;27;20042;-81
2021/04/10 09:19:12;;;;;;;11.88;1.50;;;;;;;;;;5153908;27;20047;-80
2021/04/10 09:21:38;;;;;;;9.00;2.33;;;;;;;;;;5139869;27;20474;-81
2021/04/10 09:24:21;;;;;;;9.77;1.42;;;;;;;;;;5133187;27;20042;-80
2021/04/10 09:26:57;;;;;;;10.30;1.42;;;;;;;;;;5120482;27;20054;-80
2021/04/10 09:29:24;;;;;;;6.72;1.60;;;;;;;;;;5127499;27;20047;-80
2021/04/10 09:32:00;;;;;;;10.35;1.67;;;;;;;;;;5132223;27;20050;-81
2021/04/10 09:34:45;;;;;;;8.07;1.52;;;;;;;;;;5141169;27;20058;-82
2021/04/10 09:37:12;;;;;;;7.47;1.40;;;;;;;;;;5134116;27;20047;-81
2021/04/10 09:39:55;;;;;;;7.85;1.77;;;;;;;;;;5142817;27;20039;-81
2021/04/10 09:45:14;;;;;;;8.77;1.90;;;;;;;;;;5136963;27;20031;-82
2021/04/10 09:48:01;;;;;;;8.05;1.35;;;;;;;;;;5135099;27;20410;-80
2021/04/10 09:50:28;;;;;;;4.75;1.05;;;;;;;;;;5136697;27;20952;-75
2021/04/10 09:52:55;;;;;;;7.88;1.67;;;;;;;;;;5146954;27;20043;-78
2021/04/10 09:55:22;;;;;;;6.55;1.25;;;;;;;;;;5155153;27;20031;-78
2021/04/10 09:57:59;;;;;;;8.30;1.27;;;;;;;;;;5139772;27;20383;-76
2021/04/10 10:00:26;;;;;;;5.43;1.58;;;;;;;;;;5113814;27;20066;-77
2021/04/10 10:02:53;;;;;;;10.13;1.65;;;;;;;;;;5117590;27;20128;-78
2021/04/10 10:05:19;;;;;;;7.18;1.38;;;;;;;;;;5115793;27;20035;-77
2021/04/10 10:07:45;;;;;;;4.57;1.00;;;;;;;;;;5131109;27;20043;-78
2021/04/10 10:10:12;;;;;;;9.15;1.52;;;;;;;;;;5127147;27;20039;-77
2021/04/10 10:12:39;;;;;;;10.07;1.75;;;;;;;;;;5130220;27;20062;-77
2021/04/10 10:15:20;;;;;;;10.18;1.38;;;;;;;;;;5116991;27;20074;-79
2021/04/10 10:17:46;;;;;;;6.90;1.73;;;;;;;;;;5131412;27;20078;-78
2021/04/10 10:20:13;;;;;;;10.80;1.70;;;;;;;;;;5129938;27;20080;-78
2021/04/10 10:22:40;;;;;;;8.73;1.38;;;;;;;;;;5127391;27;20434;-78
2021/04/10 10:25:07;;;;;;;7.93;1.48;;;;;;;;;;5124611;27;20113;-78
2021/04/10 10:27:34;;;;;;;10.43;1.63;;;;;;;;;;5136867;27;20058;-77
2021/04/10 10:30:00;;;;;;;10.55;1.98;;;;;;;;;;5130014;27;20410;-75
2021/04/10 10:32:27;;;;;;;6.82;1.40;;;;;;;;;;5104104;27;20047;-77
2021/04/10 10:34:53;;;;;;;7.50;1.40;;;;;;;;;;5107231;27;20050;-72
2021/04/10 10:37:24;;;;;;;8.27;1.83;;;;;;;;;;5105176;27;20095;-80
2021/04/10 10:39:50;;;;;;;10.82;1.45;;;;;;;;;;5145850;27;20043;-77
2021/04/10 10:42:23;;;;;;;9.23;1.60;;;;;;;;;;5151935;27;20050;-88
2021/04/10 10:44:49;;;;;;;6.60;1.05;;;;;;;;;;5138204;27;20081;-86
2021/04/10 10:47:15;;;;;;;6.97;1.20;;;;;;;;;;5131798;27;20050;-86
2021/04/10 10:49:48;;;;;;;6.68;1.20;;;;;;;;;;5144653;27;20046;-82
2021/04/10 10:52:15;;;;;;;8.52;1.52;;;;;;;;;;5133796;27;20035;-81
2021/04/10 10:54:42;;;;;;;10.02;1.23;;;;;;;;;;5130791;27;20043;-82
2021/04/10 10:57:18;;;;;;;13.70;3.35;;;;;;;;;;5146104;27;20065;-82
2021/04/10 10:59:45;;;;;;;7.30;1.50;;;;;;;;;;5129025;27;20042;-81
2021/04/10 11:02:18;;;;;;;9.50;1.50;;;;;;;;;;5127074;27;20047;-80
2021/04/10 11:04:46;;;;;;;10.20;1.33;;;;;;;;;;5126270;27;20050;-81
2021/04/10 11:07:13;;;;;;;9.55;1.80;;;;;;;;;;5131182;27;20070;-83
2021/04/10 11:09:40;;;;;;;8.02;1.20;;;;;;;;;;5115954;27;20035;-82
2021/04/10 11:12:14;;;;;;;5.78;0.90;;;;;;;;;;5129574;27;20057;-82
2021/04/10 11:14:44;;;;;;;6.90;1.13;;;;;;;;;;5093443;27;20071;-81
2021/04/10 11:17:11;;;;;;;4.93;1.00;;;;;;;;;;5111792;27;20063;-87
2021/04/10 11:19:45;;;;;;;7.88;1.30;;;;;;;;;;5098531;27;20562;-79
2021/04/10 11:22:17;;;;;;;7.10;1.30;;;;;;;;;;5130345;27;20047;-78
2021/04/10 11:24:43;;;;;;;9.32;2.10;;;;;;;;;;5132970;27;20038;-79
2021/04/10 11:27:17;;;;;;;6.65;1.38;;;;;;;;;;5130477;27;20039;-81
2021/04/10 11:30:00;;;;;;;6.47;1.10;;;;;;;;;;5132581;27;20037;-83
2021/04/10 11:32:26;;;;;;;12.32;1.55;;;;;;;;;;5142801;27;20031;-79
2021/04/10 11:34:57;;;;;;;7.18;1.20;;;;;;;;;;5121127;27;20449;-82
2021/04/10 11:37:32;;;;;;;10.88;1.70;;;;;;;;;;5125731;27;20035;-89
2021/04/10 11:40:03;;;;;;;5.32;1.08;;;;;;;;;;5110968;27;20046;-88
2021/04/10 11:42:32;;;;;;;9.57;1.40;;;;;;;;;;5112920;27;20044;-89
2021/04/10 11:45:00;;;;;;;6.78;1.40;;;;;;;;;;5130383;27;20378;-80
2021/04/10 11:47:37;;;;;;;10.07;1.67;;;;;;;;;;5134761;27;20634;-86
2021/04/10 11:50:09;;;;;;;8.48;1.40;;;;;;;;;;5133215;27;20125;-85
2021/04/10 11:52:36;;;;;;;6.75;1.52;;;;;;;;;;5132619;27;20028;-78
2021/04/10 11:55:07;;;;;;;10.35;1.67;;;;;;;;;;5106181;27;20047;-83
2021/04/10 11:57:35;;;;;;;8.27;1.50;;;;;;;;;;5114816;27;20051;-90
2021/04/10 12:00:03;;;;;;;6.07;1.50;;;;;;;;;;5127420;27;20051;-76
2021/04/10 12:02:33;;;;;;;10.30;1.08;;;;;;;;;;5132624;27;20130;-80
2021/04/10 12:05:17;;;;;;;4.82;1.27;;;;;;;;;;5132100;27;20031;-77
2021/04/10 12:08:02;;;;;;;6.95;1.55;;;;;;;;;;5126167;27;20059;-75
2021/04/10 12:10:28;;;;;;;9.95;1.85;;;;;;;;;;5127954;27;20043;-77
2021/04/10 12:12:55;;;;;;;6.45;1.67;;;;;;;;;;5107614;27;20069;-76
2021/04/10 12:15:27;;;;;;;8.00;1.48;;;;;;;;;;5127159;27;20039;-81
2021/04/10 12:17:53;;;;;;;7.35;1.40;;;;;;;;;;5141278;27;20055;-78
2021/04/10 12:20:20;;;;;;;6.88;1.20;;;;;;;;;;5139950;27;20039;-77
2021/04/10 12:22:46;;;;;;;5.88;1.40;;;;;;;;;;5141704;27;20078;-83
2021/04/10 12:25:12;;;;;;;7.88;1.52;;;;;;;;;;5121142;27;20059;-76
2021/04/10 12:27:39;;;;;;;8.98;1.30;;;;;;;;;;5128899;27;20057;-78
2021/04/10 12:30:06;;;;;;;5.68;1.15;;;;;;;;;;5143417;27;20126;-78
2021/04/10 12:32:32;;;;;;;7.47;1.20;;;;;;;;;;5138364;27;20120;-82
2021/04/10 12:34:59;;;;;;;6.50;1.70;;;;;;;;;;5128271;27;20035;-81
2021/04/10 12:37:25;;;;;;;5.45;1.50;;;;;;;;;;5126226;27;20058;-80
2021/04/10 12:39:51;;;;;;;7.60;1.05;;;;;;;;;;5130083;27;20052;-81
2021/04/10 12:42:17;;;;;;;5.25;1.30;;;;;;;;;;5134843;27;20059;-80
2021/04/10 12:44:43;;;;;;;4.25;1.05;;;;;;;;;;5132704;27;20038;-80
2021/04/10 12:47:16;;;;;;;2.67;1.10;;;;;;;;;;5112993;27;20061;-81
2021/04/10 12:49:43;;;;;;;6.53;1.20;;;;;;;;;;5131044;27;20450;-79
2021/04/10 12:52:09;;;;;;;7.32;1.30;;;;;;;;;;5127106;27;20043;-80
2021/04/10 12:54:36;;;;;;;6.28;1.20;;;;;;;;;;5127204;27;20099;-80
2021/04/10 12:57:02;;;;;;;6.45;1.63;;;;;;;;;;5126720;27;20039;-80
2021/04/10 12:59:28;;;;;;;6.03;1.30;;;;;;;;;;5122590;27;20123;-80
2021/04/10 13:01:56;;;;;;;3.55;0.88;;;;;;;;;;5130099;27;20055;-79
2021/04/10 13:04:23;;;;;;;6.90;1.20;;;;;;;;;;5122780;27;20039;-79
2021/04/10 13:06:50;;;;;;;11.15;2.55;;;;;;;;;;5131014;27;20134;-80
2021/04/10 13:09:16;;;;;;;6.95;1.05;;;;;;;;;;5129990;27;20104;-78
2021/04/10 13:11:42;;;;;;;5.13;1.25;;;;;;;;;;5108876;27;20086;-79
2021/04/10 13:14:09;;;;;;;4.30;1.50;;;;;;;;;;5145348;27;20052;-80
2021/04/10 13:16:36;;;;;;;3.83;1.02;;;;;;;;;;5125162;27;20416;-79
2021/04/10 13:19:03;;;;;;;3.80;0.90;;;;;;;;;;5129756;27;20043;-79
2021/04/10 13:21:29;;;;;;;6.57;1.08;;;;;;;;;;5130354;27;20740;-79
2021/04/10 13:23:55;;;;;;;3.88;0.95;;;;;;;;;;5128480;27;20040;-78
2021/04/10 13:26:22;;;;;;;2.85;0.80;;;;;;;;;;5130818;27;20129;-78
2021/04/10 13:28:48;;;;;;;4.97;1.30;;;;;;;;;;5143518;27;20114;-79
2021/04/10 13:31:15;;;;;;;5.80;1.05;;;;;;;;;;5129819;27;20423;-79
2021/04/10 13:33:41;;;;;;;6.10;1.60;;;;;;;;;;5130461;27;20043;-78
2021/04/10 13:36:07;;;;;;;6.47;1.35;;;;;;;;;;5131112;27;20047;-79
2021/04/10 13:38:34;;;;;;;7.43;1.40;;;;;;;;;;5131188;27;20101;-78
2021/04/10 13:41:01;;;;;;;3.25;0.80;;;;;;;;;;5126128;27;20038;-79
2021/04/10 13:43:27;;;;;;;4.93;1.02;;;;;;;;;;5110229;27;20638;-81
2021/04/10 13:45:54;;;;;;;4.10;1.25;;;;;;;;;;5122089;27;20032;-77
2021/04/10 13:48:20;;;;;;;6.13;1.25;;;;;;;;;;5102190;28;20398;-76
2021/04/10 13:50:50;;;;;;;6.75;1.27;;;;;;;;;;5127498;27;20092;-78
2021/04/10 13:53:16;;;;;;;6.03;1.10;;;;;;;;;;5131871;27;20138;-76
2021/04/10 13:55:42;;;;;;;8.52;1.10;;;;;;;;;;5132494;27;20066;-78
2021/04/10 13:58:09;;;;;;;7.88;1.15;;;;;;;;;;5134035;27;20078;-76
2021/04/10 14:00:36;;;;;;;3.35;0.82;;;;;;;;;;5130898;27;20042;-75
2021/04/10 14:03:06;;;;;;;8.32;1.25;;;;;;;;;;5129335;27;20055;-81
2021/04/10 14:05:32;;;;;;;4.95;1.45;;;;;;;;;;5133042;27;20038;-77
2021/04/10 14:07:58;;;;;;;4.80;1.30;;;;;;;;;;5121471;27;20378;-78
2021/04/10 14:10:25;;;;;;;6.38;1.42;;;;;;;;;;5119339;27;20412;-79
2021/04/10 14:12:52;;;;;;;6.32;1.42;;;;;;;;;;5124063;27;20047;-77
2021/04/10 14:15:22;;;;;;;8.98;1.80;;;;;;;;;;5135458;27;20106;-75
2021/04/10 14:17:48;;;;;;;7.15;1.33;;;;;;;;;;5150542;27;20054;-75
2021/04/10 14:20:16;;;;;;;9.52;1.90;;;;;;;;;;5150764;27;20045;-75
2021/04/10 14:22:42;;;;;;;9.30;1.63;;;;;;;;;;5130223;27;20063;-80
2021/04/10 14:25:09;;;;;;;6.40;1.17;;;;;;;;;;5131354;27;20043;-78
2021/04/10 14:27:36;;;;;;;7.05;1.23;;;;;;;;;;5127808;27;20052;-76
2021/04/10 14:30:03;;;;;;;5.93;1.20;;;;;;;;;;5128674;27;20121;-75
2021/04/10 14:32:29;;;;;;;8.07;1.20;;;;;;;;;;5125126;27;20034;-75
2021/04/10 14:34:56;;;;;;;4.65;1.23;;;;;;;;;;5131480;27;20050;-76
2021/04/10 14:37:22;;;;;;;6.55;1.88;;;;;;;;;;5135221;27;20047;-75
2021/04/10 14:39:49;;;;;;;5.43;1.77;;;;;;;;;;5133214;27;20118;-75
2021/04/10 14:42:15;;;;;;;7.78;1.55;;;;;;;;;;5136983;27;20046;-75
2021/04/10 14:44:42;;;;;;;8.77;1.95;;;;;;;;;;5130096;27;20083;-76